sensor_id;sensor_type;location;lat;lon;timestamp;temperature;humidity
22290;DHT22;11313;50.116;8.424;2022-10-14T00:01:05;21.70;56.90
22290;DHT22;11313;50.116;8.424;2022-10-14T00:03:32;21.70;56.90
22290;DHT22;11313;50.116;8.424;2022-10-14T00:05:58;21.70;56.90
22290;DHT22;11313;50.116;8.424;2022-10-14T00:08:24;21.70;56.90
22290;DHT22;11313;50.116;8.424;2022-10-14T00:10:50;21.70;56.90
22290;DHT22;11313;50.116;8.424;2022-10-14T00:13:15;21.70;56.90
22290;DHT22;11313;50.116;8.424;2022-10-14T00:15:41;21.70;56.90
22290;DHT22;11313;50.116;8.424;2022-10-14T00:18:07;21.70;56.90
22290;DHT22;11313;50.116;8.424;2022-10-14T00:20:34;21.70;56.90
22290;DHT22;11313;50.116;8.424;2022-10-14T00:22:59;21.70;56.90
22290;DHT22;11313;50.116;8.424;2022-10-14T00:25:25;21.70;56.90
22290;DHT22;11313;50.116;8.424;2022-10-14T00:27:51;21.70;56.90
22290;DHT22;11313;50.116;8.424;2022-10-14T00:30:17;21.70;56.90
22290;DHT22;11313;50.116;8.424;2022-10-14T00:32:43;21.70;56.90
22290;DHT22;11313;50.116;8.424;2022-10-14T00:35:08;21.70;56.90
22290;DHT22;11313;50.116;8.424;2022-10-14T00:37:34;21.70;56.90
22290;DHT22;11313;50.116;8.424;2022-10-14T00:39:59;21.70;56.80
22290;DHT22;11313;50.116;8.424;2022-10-14T00:42:25;21.70;56.90
22290;DHT22;11313;50.116;8.424;2022-10-14T00:47:16;21.70;56.90
22290;DHT22;11313;50.116;8.424;2022-10-14T00:49:42;21.70;56.90
22290;DHT22;11313;50.116;8.424;2022-10-14T00:52:16;21.70;56.90
22290;DHT22;11313;50.116;8.424;2022-10-14T00:54:56;21.70;56.90
22290;DHT22;11313;50.116;8.424;2022-10-14T00:57:24;21.70;56.90
22290;DHT22;11313;50.116;8.424;2022-10-14T00:59:52;21.70;56.90
22290;DHT22;11313;50.116;8.424;2022-10-14T01:02:18;21.70;56.90
22290;DHT22;11313;50.116;8.424;2022-10-14T01:04:44;21.70;56.90
22290;DHT22;11313;50.116;8.424;2022-10-14T01:13:22;21.70;56.90
22290;DHT22;11313;50.116;8.424;2022-10-14T01:18:42;21.70;56.90
22290;DHT22;11313;50.116;8.424;2022-10-14T01:21:14;21.70;56.90
22290;DHT22;11313;50.116;8.424;2022-10-14T01:26:54;21.70;56.90
22290;DHT22;11313;50.116;8.424;2022-10-14T01:29:46;21.70;56.90
22290;DHT22;11313;50.116;8.424;2022-10-14T01:32:44;21.70;56.90
22290;DHT22;11313;50.116;8.424;2022-10-14T01:35:23;21.70;56.80
22290;DHT22;11313;50.116;8.424;2022-10-14T01:38:16;21.70;56.90
22290;DHT22;11313;50.116;8.424;2022-10-14T01:41:00;21.70;56.90
22290;DHT22;11313;50.116;8.424;2022-10-14T01:43:29;21.70;56.90
22290;DHT22;11313;50.116;8.424;2022-10-14T01:45:58;21.70;56.80
22290;DHT22;11313;50.116;8.424;2022-10-14T01:48:29;21.70;56.90
22290;DHT22;11313;50.116;8.424;2022-10-14T01:50:59;21.70;56.90
22290;DHT22;11313;50.116;8.424;2022-10-14T01:53:31;21.70;56.80
22290;DHT22;11313;50.116;8.424;2022-10-14T01:55:59;21.70;56.90
22290;DHT22;11313;50.116;8.424;2022-10-14T01:58:27;21.70;56.90
22290;DHT22;11313;50.116;8.424;2022-10-14T02:00:53;21.70;56.90
22290;DHT22;11313;50.116;8.424;2022-10-14T02:03:19;21.60;56.80
22290;DHT22;11313;50.116;8.424;2022-10-14T02:05:53;21.60;56.80
22290;DHT22;11313;50.116;8.424;2022-10-14T02:08:27;21.70;56.90
22290;DHT22;11313;50.116;8.424;2022-10-14T02:11:10;21.70;56.90
22290;DHT22;11313;50.116;8.424;2022-10-14T02:13:59;21.70;56.90
22290;DHT22;11313;50.116;8.424;2022-10-14T02:16:40;21.70;56.90
22290;DHT22;11313;50.116;8.424;2022-10-14T02:22:01;21.60;56.80
22290;DHT22;11313;50.116;8.424;2022-10-14T02:24:39;21.70;56.90
22290;DHT22;11313;50.116;8.424;2022-10-14T02:27:12;21.60;56.80
22290;DHT22;11313;50.116;8.424;2022-10-14T02:29:41;21.60;56.80
22290;DHT22;11313;50.116;8.424;2022-10-14T02:32:08;21.60;56.80
22290;DHT22;11313;50.116;8.424;2022-10-14T02:34:36;21.60;56.80
22290;DHT22;11313;50.116;8.424;2022-10-14T02:37:02;21.60;56.80
22290;DHT22;11313;50.116;8.424;2022-10-14T02:39:37;21.60;56.80
22290;DHT22;11313;50.116;8.424;2022-10-14T02:42:05;21.60;56.80
22290;DHT22;11313;50.116;8.424;2022-10-14T02:44:30;21.60;56.80
22290;DHT22;11313;50.116;8.424;2022-10-14T02:46:56;21.60;56.80
22290;DHT22;11313;50.116;8.424;2022-10-14T02:49:21;21.60;56.80
22290;DHT22;11313;50.116;8.424;2022-10-14T02:51:47;21.60;56.80
22290;DHT22;11313;50.116;8.424;2022-10-14T02:54:13;21.60;56.80
22290;DHT22;11313;50.116;8.424;2022-10-14T02:56:38;21.60;56.80
22290;DHT22;11313;50.116;8.424;2022-10-14T02:59:04;21.60;56.80
22290;DHT22;11313;50.116;8.424;2022-10-14T03:01:29;21.60;56.80
22290;DHT22;11313;50.116;8.424;2022-10-14T03:03:55;21.60;56.80
22290;DHT22;11313;50.116;8.424;2022-10-14T03:06:20;21.60;56.80
22290;DHT22;11313;50.116;8.424;2022-10-14T03:08:46;21.60;56.80
22290;DHT22;11313;50.116;8.424;2022-10-14T03:11:12;21.60;56.80
22290;DHT22;11313;50.116;8.424;2022-10-14T03:13:37;21.60;56.80
22290;DHT22;11313;50.116;8.424;2022-10-14T03:16:03;21.60;56.80
22290;DHT22;11313;50.116;8.424;2022-10-14T03:18:28;21.60;56.80
22290;DHT22;11313;50.116;8.424;2022-10-14T03:20:54;21.60;56.80
22290;DHT22;11313;50.116;8.424;2022-10-14T03:23:20;21.60;56.80
22290;DHT22;11313;50.116;8.424;2022-10-14T03:25:45;21.60;56.80
22290;DHT22;11313;50.116;8.424;2022-10-14T03:28:11;21.60;56.80
22290;DHT22;11313;50.116;8.424;2022-10-14T03:30:37;21.60;56.80
22290;DHT22;11313;50.116;8.424;2022-10-14T03:33:03;21.60;56.80
22290;DHT22;11313;50.116;8.424;2022-10-14T03:35:28;21.60;56.80
22290;DHT22;11313;50.116;8.424;2022-10-14T03:37:54;21.70;56.80
22290;DHT22;11313;50.116;8.424;2022-10-14T03:40:20;21.60;56.80
22290;DHT22;11313;50.116;8.424;2022-10-14T03:42:46;21.60;56.80
22290;DHT22;11313;50.116;8.424;2022-10-14T03:45:12;21.60;56.80
22290;DHT22;11313;50.116;8.424;2022-10-14T03:47:37;21.60;56.80
22290;DHT22;11313;50.116;8.424;2022-10-14T03:50:03;21.60;56.80
22290;DHT22;11313;50.116;8.424;2022-10-14T03:52:30;21.60;56.80
22290;DHT22;11313;50.116;8.424;2022-10-14T03:54:55;21.60;56.80
22290;DHT22;11313;50.116;8.424;2022-10-14T03:57:21;21.60;56.80
22290;DHT22;11313;50.116;8.424;2022-10-14T03:59:46;21.60;56.80
22290;DHT22;11313;50.116;8.424;2022-10-14T04:02:12;21.60;56.80
22290;DHT22;11313;50.116;8.424;2022-10-14T04:04:37;21.60;56.80
22290;DHT22;11313;50.116;8.424;2022-10-14T04:07:03;21.60;56.80
22290;DHT22;11313;50.116;8.424;2022-10-14T04:09:29;21.60;56.80
22290;DHT22;11313;50.116;8.424;2022-10-14T04:11:54;21.60;56.80
22290;DHT22;11313;50.116;8.424;2022-10-14T04:14:22;21.60;56.80
22290;DHT22;11313;50.116;8.424;2022-10-14T04:16:48;21.60;56.80
22290;DHT22;11313;50.116;8.424;2022-10-14T04:19:14;21.60;56.80
22290;DHT22;11313;50.116;8.424;2022-10-14T04:21:39;21.60;56.80
22290;DHT22;11313;50.116;8.424;2022-10-14T04:24:05;21.60;56.80
22290;DHT22;11313;50.116;8.424;2022-10-14T04:26:30;21.60;56.80
22290;DHT22;11313;50.116;8.424;2022-10-14T04:28:56;21.60;56.80
22290;DHT22;11313;50.116;8.424;2022-10-14T04:31:21;21.60;56.80
22290;DHT22;11313;50.116;8.424;2022-10-14T04:33:47;21.60;56.80
22290;DHT22;11313;50.116;8.424;2022-10-14T04:36:12;21.60;56.80
22290;DHT22;11313;50.116;8.424;2022-10-14T04:38:38;21.60;56.80
22290;DHT22;11313;50.116;8.424;2022-10-14T04:41:04;21.60;56.80
22290;DHT22;11313;50.116;8.424;2022-10-14T04:43:29;21.60;56.80
22290;DHT22;11313;50.116;8.424;2022-10-14T04:45:55;21.60;56.80
22290;DHT22;11313;50.116;8.424;2022-10-14T04:48:20;21.60;56.80
22290;DHT22;11313;50.116;8.424;2022-10-14T04:50:49;21.60;56.90
22290;DHT22;11313;50.116;8.424;2022-10-14T04:53:16;21.60;56.90
22290;DHT22;11313;50.116;8.424;2022-10-14T04:55:43;21.70;57.00
22290;DHT22;11313;50.116;8.424;2022-10-14T04:58:09;21.80;56.90
22290;DHT22;11313;50.116;8.424;2022-10-14T05:00:35;21.80;56.90
22290;DHT22;11313;50.116;8.424;2022-10-14T05:03:00;21.90;56.90
22290;DHT22;11313;50.116;8.424;2022-10-14T05:05:26;21.90;57.60
22290;DHT22;11313;50.116;8.424;2022-10-14T05:07:51;21.90;56.90
22290;DHT22;11313;50.116;8.424;2022-10-14T05:10:17;21.90;56.80
22290;DHT22;11313;50.116;8.424;2022-10-14T05:12:42;21.90;56.70
22290;DHT22;11313;50.116;8.424;2022-10-14T05:15:08;21.90;56.80
22290;DHT22;11313;50.116;8.424;2022-10-14T05:17:34;21.90;56.70
22290;DHT22;11313;50.116;8.424;2022-10-14T05:20:02;21.90;56.90
22290;DHT22;11313;50.116;8.424;2022-10-14T05:22:28;21.90;57.00
22290;DHT22;11313;50.116;8.424;2022-10-14T05:24:53;21.90;57.20
22290;DHT22;11313;50.116;8.424;2022-10-14T05:27:19;21.90;57.30
22290;DHT22;11313;50.116;8.424;2022-10-14T05:29:44;21.90;57.30
22290;DHT22;11313;50.116;8.424;2022-10-14T05:32:10;21.90;57.30
22290;DHT22;11313;50.116;8.424;2022-10-14T05:34:35;21.90;57.30
22290;DHT22;11313;50.116;8.424;2022-10-14T05:37:01;22.00;57.20
22290;DHT22;11313;50.116;8.424;2022-10-14T05:39:27;22.00;57.20
22290;DHT22;11313;50.116;8.424;2022-10-14T05:41:52;22.00;57.20
22290;DHT22;11313;50.116;8.424;2022-10-14T05:44:18;22.00;57.20
22290;DHT22;11313;50.116;8.424;2022-10-14T05:46:43;22.00;57.20
22290;DHT22;11313;50.116;8.424;2022-10-14T05:49:10;22.00;57.20
22290;DHT22;11313;50.116;8.424;2022-10-14T05:51:35;22.10;57.90
22290;DHT22;11313;50.116;8.424;2022-10-14T05:54:01;22.10;57.20
22290;DHT22;11313;50.116;8.424;2022-10-14T05:56:26;22.00;57.30
22290;DHT22;11313;50.116;8.424;2022-10-14T05:58:52;22.00;57.20
22290;DHT22;11313;50.116;8.424;2022-10-14T06:01:17;22.00;57.30
22290;DHT22;11313;50.116;8.424;2022-10-14T06:03:43;22.00;57.40
22290;DHT22;11313;50.116;8.424;2022-10-14T06:06:12;22.10;57.40
22290;DHT22;11313;50.116;8.424;2022-10-14T06:08:40;22.10;57.30
22290;DHT22;11313;50.116;8.424;2022-10-14T06:11:06;22.10;57.30
22290;DHT22;11313;50.116;8.424;2022-10-14T06:13:32;22.10;57.30
22290;DHT22;11313;50.116;8.424;2022-10-14T06:16:05;22.10;57.30
22290;DHT22;11313;50.116;8.424;2022-10-14T06:18:32;22.10;58.00
22290;DHT22;11313;50.116;8.424;2022-10-14T06:20:57;22.10;57.30
22290;DHT22;11313;50.116;8.424;2022-10-14T06:23:23;22.10;57.30
22290;DHT22;11313;50.116;8.424;2022-10-14T06:25:48;22.10;57.30
22290;DHT22;11313;50.116;8.424;2022-10-14T06:28:14;22.10;57.30
22290;DHT22;11313;50.116;8.424;2022-10-14T06:30:40;22.10;57.30
22290;DHT22;11313;50.116;8.424;2022-10-14T06:33:05;22.10;57.40
22290;DHT22;11313;50.116;8.424;2022-10-14T06:35:31;22.10;58.00
22290;DHT22;11313;50.116;8.424;2022-10-14T06:37:57;22.10;57.70
22290;DHT22;11313;50.116;8.424;2022-10-14T06:40:23;22.10;57.60
22290;DHT22;11313;50.116;8.424;2022-10-14T06:42:48;22.10;57.50
22290;DHT22;11313;50.116;8.424;2022-10-14T06:45:14;22.20;57.40
22290;DHT22;11313;50.116;8.424;2022-10-14T06:47:39;22.20;57.40
22290;DHT22;11313;50.116;8.424;2022-10-14T06:50:05;22.20;57.30
22290;DHT22;11313;50.116;8.424;2022-10-14T06:52:31;22.20;57.30
22290;DHT22;11313;50.116;8.424;2022-10-14T06:54:56;22.20;57.30
22290;DHT22;11313;50.116;8.424;2022-10-14T06:57:22;22.20;57.30
22290;DHT22;11313;50.116;8.424;2022-10-14T06:59:47;22.20;57.30
22290;DHT22;11313;50.116;8.424;2022-10-14T07:02:13;22.20;57.30
22290;DHT22;11313;50.116;8.424;2022-10-14T07:04:39;22.20;57.30
22290;DHT22;11313;50.116;8.424;2022-10-14T07:07:06;22.20;57.30
22290;DHT22;11313;50.116;8.424;2022-10-14T07:09:31;22.20;57.40
22290;DHT22;11313;50.116;8.424;2022-10-14T07:11:57;22.20;57.50
22290;DHT22;11313;50.116;8.424;2022-10-14T07:14:22;22.10;57.40
22290;DHT22;11313;50.116;8.424;2022-10-14T07:16:48;22.20;57.50
22290;DHT22;11313;50.116;8.424;2022-10-14T07:19:14;22.20;57.30
22290;DHT22;11313;50.116;8.424;2022-10-14T07:21:39;22.20;57.30
22290;DHT22;11313;50.116;8.424;2022-10-14T07:24:07;22.20;57.20
22290;DHT22;11313;50.116;8.424;2022-10-14T07:26:33;22.20;57.20
22290;DHT22;11313;50.116;8.424;2022-10-14T07:28:59;22.20;57.20
22290;DHT22;11313;50.116;8.424;2022-10-14T07:31:25;22.20;57.20
22290;DHT22;11313;50.116;8.424;2022-10-14T07:33:50;22.20;57.20
22290;DHT22;11313;50.116;8.424;2022-10-14T07:36:17;22.20;57.20
22290;DHT22;11313;50.116;8.424;2022-10-14T07:38:43;22.20;57.20
22290;DHT22;11313;50.116;8.424;2022-10-14T07:41:12;22.20;57.20
22290;DHT22;11313;50.116;8.424;2022-10-14T07:43:46;22.20;57.20
22290;DHT22;11313;50.116;8.424;2022-10-14T07:46:13;22.20;57.20
22290;DHT22;11313;50.116;8.424;2022-10-14T07:48:39;22.20;57.20
22290;DHT22;11313;50.116;8.424;2022-10-14T07:51:06;22.20;57.20
22290;DHT22;11313;50.116;8.424;2022-10-14T07:53:32;22.20;57.20
22290;DHT22;11313;50.116;8.424;2022-10-14T07:55:58;22.20;57.20
22290;DHT22;11313;50.116;8.424;2022-10-14T07:58:26;22.20;57.20
22290;DHT22;11313;50.116;8.424;2022-10-14T08:00:52;22.20;57.20
22290;DHT22;11313;50.116;8.424;2022-10-14T08:03:19;22.20;57.30
22290;DHT22;11313;50.116;8.424;2022-10-14T08:05:45;22.20;57.30
22290;DHT22;11313;50.116;8.424;2022-10-14T08:08:12;22.20;57.40
22290;DHT22;11313;50.116;8.424;2022-10-14T08:10:38;22.10;57.50
22290;DHT22;11313;50.116;8.424;2022-10-14T08:13:04;22.00;57.60
22290;DHT22;11313;50.116;8.424;2022-10-14T08:15:35;21.80;58.00
22290;DHT22;11313;50.116;8.424;2022-10-14T08:18:03;21.80;58.20
22290;DHT22;11313;50.116;8.424;2022-10-14T08:20:29;21.70;58.40
22290;DHT22;11313;50.116;8.424;2022-10-14T08:22:54;21.70;58.50
22290;DHT22;11313;50.116;8.424;2022-10-14T08:25:20;21.60;58.50
22290;DHT22;11313;50.116;8.424;2022-10-14T08:27:51;21.60;58.60
22290;DHT22;11313;50.116;8.424;2022-10-14T08:30:19;21.60;58.70
22290;DHT22;11313;50.116;8.424;2022-10-14T08:32:45;21.60;58.80
22290;DHT22;11313;50.116;8.424;2022-10-14T08:35:10;21.60;58.70
22290;DHT22;11313;50.116;8.424;2022-10-14T08:37:36;21.70;59.00
22290;DHT22;11313;50.116;8.424;2022-10-14T08:40:03;21.60;59.00
22290;DHT22;11313;50.116;8.424;2022-10-14T08:45:36;21.50;59.40
22290;DHT22;11313;50.116;8.424;2022-10-14T08:48:16;21.60;59.30
22290;DHT22;11313;50.116;8.424;2022-10-14T08:51:03;21.50;59.40
22290;DHT22;11313;50.116;8.424;2022-10-14T08:53:38;21.50;59.50
22290;DHT22;11313;50.116;8.424;2022-10-14T08:56:05;21.50;59.40
22290;DHT22;11313;50.116;8.424;2022-10-14T08:58:34;21.50;59.60
22290;DHT22;11313;50.116;8.424;2022-10-14T09:01:27;21.50;59.60
22290;DHT22;11313;50.116;8.424;2022-10-14T09:03:56;21.50;59.70
22290;DHT22;11313;50.116;8.424;2022-10-14T09:06:37;21.40;59.90
22290;DHT22;11313;50.116;8.424;2022-10-14T09:09:29;21.40;59.90
22290;DHT22;11313;50.116;8.424;2022-10-14T09:12:00;21.40;60.10
22290;DHT22;11313;50.116;8.424;2022-10-14T09:14:36;21.40;59.90
22290;DHT22;11313;50.116;8.424;2022-10-14T09:17:18;21.40;60.00
22290;DHT22;11313;50.116;8.424;2022-10-14T09:19:48;21.40;60.00
22290;DHT22;11313;50.116;8.424;2022-10-14T09:22:15;21.40;60.10
22290;DHT22;11313;50.116;8.424;2022-10-14T09:24:42;21.40;60.20
22290;DHT22;11313;50.116;8.424;2022-10-14T09:27:18;21.30;60.30
22290;DHT22;11313;50.116;8.424;2022-10-14T09:30:00;21.30;60.40
22290;DHT22;11313;50.116;8.424;2022-10-14T09:32:27;21.30;60.40
22290;DHT22;11313;50.116;8.424;2022-10-14T09:34:54;21.30;60.40
22290;DHT22;11313;50.116;8.424;2022-10-14T09:37:34;21.30;60.40
22290;DHT22;11313;50.116;8.424;2022-10-14T09:45:22;21.20;61.00
22290;DHT22;11313;50.116;8.424;2022-10-14T09:47:57;21.20;61.00
22290;DHT22;11313;50.116;8.424;2022-10-14T09:50:52;21.10;61.30
22290;DHT22;11313;50.116;8.424;2022-10-14T09:55:54;21.00;61.40
22290;DHT22;11313;50.116;8.424;2022-10-14T09:58:29;21.00;61.40
22290;DHT22;11313;50.116;8.424;2022-10-14T10:00:57;20.90;61.50
22290;DHT22;11313;50.116;8.424;2022-10-14T10:03:26;20.90;61.70
22290;DHT22;11313;50.116;8.424;2022-10-14T10:06:07;20.90;61.80
22290;DHT22;11313;50.116;8.424;2022-10-14T10:08:33;20.90;61.90
22290;DHT22;11313;50.116;8.424;2022-10-14T10:11:02;20.90;61.90
22290;DHT22;11313;50.116;8.424;2022-10-14T10:13:37;20.90;61.80
22290;DHT22;11313;50.116;8.424;2022-10-14T10:16:07;20.90;61.80
22290;DHT22;11313;50.116;8.424;2022-10-14T10:18:41;20.90;61.80
22290;DHT22;11313;50.116;8.424;2022-10-14T10:21:17;21.00;61.80
22290;DHT22;11313;50.116;8.424;2022-10-14T10:23:58;21.00;61.70
22290;DHT22;11313;50.116;8.424;2022-10-14T10:26:27;21.10;61.50
22290;DHT22;11313;50.116;8.424;2022-10-14T10:28:55;21.10;61.40
22290;DHT22;11313;50.116;8.424;2022-10-14T10:31:37;21.10;61.50
22290;DHT22;11313;50.116;8.424;2022-10-14T10:36:47;21.20;61.50
22290;DHT22;11313;50.116;8.424;2022-10-14T10:39:36;21.20;61.40
22290;DHT22;11313;50.116;8.424;2022-10-14T10:45:01;21.20;61.30
22290;DHT22;11313;50.116;8.424;2022-10-14T10:58:41;21.20;62.00
22290;DHT22;11313;50.116;8.424;2022-10-14T11:01:22;21.20;62.00
22290;DHT22;11313;50.116;8.424;2022-10-14T11:06:56;21.20;61.90
22290;DHT22;11313;50.116;8.424;2022-10-14T11:10:05;21.20;61.90
22290;DHT22;11313;50.116;8.424;2022-10-14T11:15:43;21.20;62.10
22290;DHT22;11313;50.116;8.424;2022-10-14T11:20:56;21.10;62.40
22290;DHT22;11313;50.116;8.424;2022-10-14T11:23:46;21.20;62.50
22290;DHT22;11313;50.116;8.424;2022-10-14T11:31:58;21.20;62.40
22290;DHT22;11313;50.116;8.424;2022-10-14T11:43:08;21.30;62.30
22290;DHT22;11313;50.116;8.424;2022-10-14T11:45:43;21.20;62.30
22290;DHT22;11313;50.116;8.424;2022-10-14T11:48:31;21.20;62.40
22290;DHT22;11313;50.116;8.424;2022-10-14T11:51:08;21.20;62.30
22290;DHT22;11313;50.116;8.424;2022-10-14T11:54:03;21.20;62.30
22290;DHT22;11313;50.116;8.424;2022-10-14T11:56:33;21.30;62.30
22290;DHT22;11313;50.116;8.424;2022-10-14T12:10:50;21.20;62.50
22290;DHT22;11313;50.116;8.424;2022-10-14T12:13:19;21.20;62.60
22290;DHT22;11313;50.116;8.424;2022-10-14T12:15:49;21.20;62.50
22290;DHT22;11313;50.116;8.424;2022-10-14T12:18:16;21.20;62.70
22290;DHT22;11313;50.116;8.424;2022-10-14T12:23:28;21.20;62.70
22290;DHT22;11313;50.116;8.424;2022-10-14T12:26:45;21.20;62.60
22290;DHT22;11313;50.116;8.424;2022-10-14T12:28:51;21.20;62.60
22290;DHT22;11313;50.116;8.424;2022-10-14T12:31:35;21.30;62.60
22290;DHT22;11313;50.116;8.424;2022-10-14T12:36:39;21.20;62.50
22290;DHT22;11313;50.116;8.424;2022-10-14T12:42:03;21.20;62.50
22290;DHT22;11313;50.116;8.424;2022-10-14T12:44:53;21.20;62.70
22290;DHT22;11313;50.116;8.424;2022-10-14T12:49:58;21.20;63.00
22290;DHT22;11313;50.116;8.424;2022-10-14T12:52:37;21.20;62.80
22290;DHT22;11313;50.116;8.424;2022-10-14T12:57:41;21.10;62.80
22290;DHT22;11313;50.116;8.424;2022-10-14T13:02:46;21.20;62.90
22290;DHT22;11313;50.116;8.424;2022-10-14T13:10:45;21.10;62.80
22290;DHT22;11313;50.116;8.424;2022-10-14T13:19:00;21.20;63.70
22290;DHT22;11313;50.116;8.424;2022-10-14T13:24:06;21.20;62.90
22290;DHT22;11313;50.116;8.424;2022-10-14T13:32:29;21.20;62.80
22290;DHT22;11313;50.116;8.424;2022-10-14T13:37:44;21.10;63.00
22290;DHT22;11313;50.116;8.424;2022-10-14T13:40:47;21.10;62.90
22290;DHT22;11313;50.116;8.424;2022-10-14T13:43:21;21.20;62.80
22290;DHT22;11313;50.116;8.424;2022-10-14T13:45:50;21.20;62.60
22290;DHT22;11313;50.116;8.424;2022-10-14T13:48:27;21.30;62.50
22290;DHT22;11313;50.116;8.424;2022-10-14T13:53:50;21.30;62.30
22290;DHT22;11313;50.116;8.424;2022-10-14T13:56:28;21.30;62.20
22290;DHT22;11313;50.116;8.424;2022-10-14T13:58:55;21.30;62.00
22290;DHT22;11313;50.116;8.424;2022-10-14T14:01:23;21.30;62.00
22290;DHT22;11313;50.116;8.424;2022-10-14T14:03:54;21.30;61.90
22290;DHT22;11313;50.116;8.424;2022-10-14T14:06:21;21.40;61.80
22290;DHT22;11313;50.116;8.424;2022-10-14T14:08:54;21.40;61.80
22290;DHT22;11313;50.116;8.424;2022-10-14T14:11:22;21.40;61.70
22290;DHT22;11313;50.116;8.424;2022-10-14T14:13:53;21.40;61.70
22290;DHT22;11313;50.116;8.424;2022-10-14T14:16:22;21.40;61.50
22290;DHT22;11313;50.116;8.424;2022-10-14T14:18:49;21.40;61.50
22290;DHT22;11313;50.116;8.424;2022-10-14T14:21:22;21.40;61.40
22290;DHT22;11313;50.116;8.424;2022-10-14T14:23:56;21.40;61.30
22290;DHT22;11313;50.116;8.424;2022-10-14T14:26:31;21.40;61.30
22290;DHT22;11313;50.116;8.424;2022-10-14T14:28:57;21.40;61.20
22290;DHT22;11313;50.116;8.424;2022-10-14T14:31:25;21.40;61.20
22290;DHT22;11313;50.116;8.424;2022-10-14T14:33:56;21.40;61.20
22290;DHT22;11313;50.116;8.424;2022-10-14T14:36:22;21.40;61.10
22290;DHT22;11313;50.116;8.424;2022-10-14T14:38:55;21.40;61.10
22290;DHT22;11313;50.116;8.424;2022-10-14T14:41:31;21.40;61.00
22290;DHT22;11313;50.116;8.424;2022-10-14T14:44:02;21.40;61.00
22290;DHT22;11313;50.116;8.424;2022-10-14T14:46:34;21.40;60.90
22290;DHT22;11313;50.116;8.424;2022-10-14T14:49:02;21.40;60.90
22290;DHT22;11313;50.116;8.424;2022-10-14T14:51:37;21.40;60.90
22290;DHT22;11313;50.116;8.424;2022-10-14T14:54:04;21.40;60.90
22290;DHT22;11313;50.116;8.424;2022-10-14T14:56:41;21.40;60.80
22290;DHT22;11313;50.116;8.424;2022-10-14T15:02:00;21.40;60.70
22290;DHT22;11313;50.116;8.424;2022-10-14T15:04:29;21.40;60.70
22290;DHT22;11313;50.116;8.424;2022-10-14T15:07:01;21.40;60.60
22290;DHT22;11313;50.116;8.424;2022-10-14T15:09:47;21.40;60.60
22290;DHT22;11313;50.116;8.424;2022-10-14T15:12:29;21.40;60.60
22290;DHT22;11313;50.116;8.424;2022-10-14T15:15:00;21.40;60.50
22290;DHT22;11313;50.116;8.424;2022-10-14T15:17:38;21.40;60.50
22290;DHT22;11313;50.116;8.424;2022-10-14T15:24:58;21.40;60.40
22290;DHT22;11313;50.116;8.424;2022-10-14T15:30:24;21.40;60.30
22290;DHT22;11313;50.116;8.424;2022-10-14T15:33:00;21.40;60.30
22290;DHT22;11313;50.116;8.424;2022-10-14T15:35:27;21.40;61.00
22290;DHT22;11313;50.116;8.424;2022-10-14T15:37:53;21.40;60.30
22290;DHT22;11313;50.116;8.424;2022-10-14T15:40:30;21.40;60.20
22290;DHT22;11313;50.116;8.424;2022-10-14T15:42:56;21.40;60.20
22290;DHT22;11313;50.116;8.424;2022-10-14T15:45:23;21.50;60.20
22290;DHT22;11313;50.116;8.424;2022-10-14T15:47:55;21.40;60.10
22290;DHT22;11313;50.116;8.424;2022-10-14T15:50:25;21.40;60.10
22290;DHT22;11313;50.116;8.424;2022-10-14T15:52:52;21.40;60.10
22290;DHT22;11313;50.116;8.424;2022-10-14T15:55:20;21.40;60.10
22290;DHT22;11313;50.116;8.424;2022-10-14T15:57:47;21.40;60.10
22290;DHT22;11313;50.116;8.424;2022-10-14T16:00:21;21.40;60.00
22290;DHT22;11313;50.116;8.424;2022-10-14T16:02:57;21.40;60.00
22290;DHT22;11313;50.116;8.424;2022-10-14T16:05:25;21.40;60.00
22290;DHT22;11313;50.116;8.424;2022-10-14T16:07:51;21.40;60.00
22290;DHT22;11313;50.116;8.424;2022-10-14T16:10:19;21.50;60.00
22290;DHT22;11313;50.116;8.424;2022-10-14T16:12:45;21.40;60.00
22290;DHT22;11313;50.116;8.424;2022-10-14T16:15:25;21.40;59.90
22290;DHT22;11313;50.116;8.424;2022-10-14T16:17:52;21.40;59.90
22290;DHT22;11313;50.116;8.424;2022-10-14T16:20:17;21.40;59.90
22290;DHT22;11313;50.116;8.424;2022-10-14T16:22:43;21.40;59.90
22290;DHT22;11313;50.116;8.424;2022-10-14T16:25:25;21.40;59.80
22290;DHT22;11313;50.116;8.424;2022-10-14T16:27:56;21.40;59.80
22290;DHT22;11313;50.116;8.424;2022-10-14T16:30:22;21.40;59.80
22290;DHT22;11313;50.116;8.424;2022-10-14T16:32:47;21.40;59.80
22290;DHT22;11313;50.116;8.424;2022-10-14T16:35:14;21.40;59.80
22290;DHT22;11313;50.116;8.424;2022-10-14T16:37:40;21.40;59.80
22290;DHT22;11313;50.116;8.424;2022-10-14T16:40:06;21.40;59.80
22290;DHT22;11313;50.116;8.424;2022-10-14T16:42:32;21.40;59.80
22290;DHT22;11313;50.116;8.424;2022-10-14T16:44:57;21.40;59.70
22290;DHT22;11313;50.116;8.424;2022-10-14T16:47:23;21.40;59.70
22290;DHT22;11313;50.116;8.424;2022-10-14T16:49:49;21.40;59.70
22290;DHT22;11313;50.116;8.424;2022-10-14T16:52:16;21.40;59.70
22290;DHT22;11313;50.116;8.424;2022-10-14T16:54:43;21.40;59.70
22290;DHT22;11313;50.116;8.424;2022-10-14T16:57:09;21.40;59.60
22290;DHT22;11313;50.116;8.424;2022-10-14T16:59:35;21.40;59.60
22290;DHT22;11313;50.116;8.424;2022-10-14T17:02:01;21.40;59.60
22290;DHT22;11313;50.116;8.424;2022-10-14T17:04:26;21.40;59.60
22290;DHT22;11313;50.116;8.424;2022-10-14T17:06:53;21.40;59.60
22290;DHT22;11313;50.116;8.424;2022-10-14T17:09:19;21.40;59.50
22290;DHT22;11313;50.116;8.424;2022-10-14T17:11:45;21.40;59.50
22290;DHT22;11313;50.116;8.424;2022-10-14T17:14:14;21.40;59.50
22290;DHT22;11313;50.116;8.424;2022-10-14T17:16:40;21.40;59.60
22290;DHT22;11313;50.116;8.424;2022-10-14T17:19:06;21.40;59.50
22290;DHT22;11313;50.116;8.424;2022-10-14T17:21:31;21.40;59.50
22290;DHT22;11313;50.116;8.424;2022-10-14T17:23:58;21.40;59.40
22290;DHT22;11313;50.116;8.424;2022-10-14T17:26:27;21.40;59.40
22290;DHT22;11313;50.116;8.424;2022-10-14T17:28:56;21.40;59.40
22290;DHT22;11313;50.116;8.424;2022-10-14T17:31:23;21.40;59.40
22290;DHT22;11313;50.116;8.424;2022-10-14T17:33:49;21.40;59.40
22290;DHT22;11313;50.116;8.424;2022-10-14T17:36:26;21.40;59.40
22290;DHT22;11313;50.116;8.424;2022-10-14T17:38:53;21.40;59.40
22290;DHT22;11313;50.116;8.424;2022-10-14T17:41:20;21.40;59.30
22290;DHT22;11313;50.116;8.424;2022-10-14T17:43:48;21.40;59.30
22290;DHT22;11313;50.116;8.424;2022-10-14T17:46:16;21.40;59.40
22290;DHT22;11313;50.116;8.424;2022-10-14T17:48:48;21.50;59.40
22290;DHT22;11313;50.116;8.424;2022-10-14T17:51:13;21.40;59.30
22290;DHT22;11313;50.116;8.424;2022-10-14T17:53:39;21.40;59.30
22290;DHT22;11313;50.116;8.424;2022-10-14T17:56:07;21.40;59.30